Terminal Aerodrome Forecast
Issued by NWS

Current Version | Previous Version | Graphics & Text | Print | Product List | Glossary On
Versions: 1 2 3 4 5 6 7 8 9 10 11 12 13 14 15 16
000
FTUS41 KRNK 272325
TAFLWB
TAF
KLWB 272325Z 2800/2824 22006KT P6SM BKN060
      TEMPO 2800/2801 4SM SHRA OVC040
     FM280400 00000KT P6SM SCT060
     FM280600 00000KT 2SM BR SCT050
      TEMPO 2809/2812 1/2SM FG OVC001
     FM281200 00000KT P6SM FEW250
     FM281600 19007KT P6SM SCT250=

USA.gov is the U.S. government's official web portal to all federal, state and local government web resources and services.